Decoded Metar for GCRR (LANZAROTE in SPAIN) (IATA:ACE) | Meteo·Mobile Aviation Weather
aviador You're here:

GCRR Decoded Metar

LANZAROTE in SPAIN
Report Time2018-11-14 11:00:00
UTC Time2018-11-14 11:07:19
Flight Rules vfr VFR
Wind360° at 11 kt
W.Decomp.*RWY 03: 10.0 kt HW 4.6 kt LCW
Visibility9999 m
Phenomena:N/A
Clouds:Few 030 Hf
Expected CloudBase > 4,000 ft AGL from Temp-Dew spread
CeilingNone
Temp22°C (ISA +7)
Dew Point12°C (53% RH)
AAT18.7°C
QNH1017 hPa
Density Alt1,030 ft
Elevation131 ft
Report Wrong Elevation
Raw Report
METAR GCRR 141100Z 36011KT 330V030 9999 FEW030 22/12 Q1017=

Extra information for GCRR:More info

Metar Taf Metar & Taf Last 4 Metars F.Rules Stats Wind Profile Meteogram Temp Stats Airport Information Weather charts Add Link Nearby VenuesMetar ALERT Operation Metar Decoded Social comments